Alberta, Minnesota
Current Conditions -  °F | °C
As of 6:13 PM on Thursday 27 Nov 2014 (Local Time) from KMOX Reporting Station
Broken Clouds Broken Clouds  
Wind Chill: -14°   Ceiling: 6000
Heat Index:   Visibility: 10mi
Dew Point: -2°   Wind: 16mph
Humidity: 72%   Direction: 140°SE
Pressure: 30.25"   Gusts: NA
Location:  45.57°N, 96.05°W
Report Text: KMOX 280013Z AUTO 14014KT 10SM SCT037 SCT043 BKN060 M15/M19 A3025 RMK AO2
Loading
Personal Weather Stations






























Interactive Weather Map New forecast layout! Learn more

10-Day Weather Forecast

Advertisements
Track Severe Weather on mobile